Forest City, California
Current Conditions -  °F | °C
As of 5:52 PM on Friday 24 Oct 2014 (Local Time) from KBLU Reporting Station
Clear Clear  
Wind Chill: 59°   Ceiling: Unl
Heat Index: 59°   Visibility: 10mi
Dew Point: 32°   Wind: 9mph
Humidity: 36%   Direction: 190°S
Pressure: 30.06"   Gusts: NA
Location:  39.5164°N, 120.718°W
Report Text: KBLU 250052Z AUTO 19008KT 10SM CLR 15/00 A3006 RMK AO2 SLP121 T01500000
Loading
Personal Weather Stations






























Interactive Weather Map
Tropical Storm Tracking
New forecast layout! Learn more

10-Day Weather Forecast

Advertisements
Track Severe Weather on mobile